Latest Weather Observations for Jimna

IDQ60901

Issued at 6:12 pm EST Thursday 29 January 2015 (issued every 10 minutes, with the page automatically refreshed every 10 minutes)

About weather observations | Map of Brisbane area stations | Latest observations for Brisbane area | Other Formats
Station Details ID: 040651 Name: JIMNA FORESTRY Lat: -26.66 Lon: 152.46 Height: 523.0 m
Data from the previous 72 hours. | See also: Recent months at Jimna
Date/Time
EST
Tmp

°C
App
Tmp
°C
Dew
Point
°C
Rel
Hum
%
Delta-T

°C
Wind Press
QNH
hPa
Press
MSL
hPa
Rain
since
9 am
mm
Dir
 
Spd
km/h
Gust
km/h
Spd
kts
Gust
kts
29/06:00pm 21.8 - 16.3 71 3.4 - - - - - - - 0.0
29/05:30pm 22.5 - 16.3 68 3.8 - - - - - - - 0.0
29/04:30pm 23.7 - 16.2 63 4.7 - - - - - - - 0.0
29/04:00pm 24.3 - 15.5 58 5.4 - - - - - - - 0.0
29/03:30pm 25.2 - 14.9 52 6.3 - - - - - - - 0.0
29/03:00pm 25.2 - 15.8 56 5.8 - - - - - - - 0.0
29/02:30pm 25.0 - 15.3 55 6.0 - - - - - - - 0.0
29/02:00pm 24.4 - 16.1 60 5.2 - - - - - - - 0.0
29/01:30pm 23.4 - 15.2 60 5.0 - - - - - - - 0.0
29/01:00pm 23.3 - 15.4 61 4.8 - - - - - - - 0.0
29/12:30pm 23.6 - 16.4 64 4.5 - - - - - - - 0.0
29/12:00pm 23.4 - 16.4 64 4.4 - - - - - - - 0.0
29/11:30am 22.5 - 15.6 65 4.2 - - - - - - - 0.0
29/11:00am 22.5 - 16.1 67 4.0 - - - - - - - 0.0
29/10:30am 21.6 - 16.1 71 3.4 - - - - - - - 0.0
29/10:00am 21.4 - 15.9 71 3.4 - - - - - - - 0.0
29/09:30am 20.6 - 16.2 76 2.7 - - - - - - - 0.0
29/09:00am 20.3 - 16.5 79 2.3 - - - - - - - 2.0
29/08:30am 17.9 - 15.5 86 1.4 - - - - - - - 2.0
29/08:00am 17.2 - 15.2 88 1.2 - - - - - - - 2.0
29/07:30am 17.2 - 15.7 91 0.9 - - - - - - - 2.0
29/07:00am 17.0 - 15.7 92 0.8 - - - - - - - 2.0
29/06:30am 16.7 - 15.7 94 0.6 - - - - - - - 2.0
29/06:00am 16.4 - 15.4 94 0.6 - - - - - - - 2.0
29/05:30am 16.4 - 15.4 94 0.6 - - - - - - - 2.0
29/05:00am 16.5 - 15.5 94 0.6 - - - - - - - 2.0
29/04:30am 16.6 - 15.6 94 0.6 - - - - - - - 2.0
29/04:00am 16.7 - 15.4 92 0.8 - - - - - - - 2.0
29/03:30am 16.8 - 15.5 92 0.8 - - - - - - - 2.0
29/03:00am 16.9 - 15.6 92 0.8 - - - - - - - 2.0
29/02:30am 16.9 - 15.6 92 0.8 - - - - - - - 2.0
29/02:00am 17.1 - 15.6 91 0.9 - - - - - - - 2.0
29/01:30am 17.3 - 15.6 90 1.0 - - - - - - - 2.0
29/01:00am 17.4 - 15.9 91 0.9 - - - - - - - 2.0
29/12:30am 17.5 - 15.8 90 1.0 - - - - - - - 2.0
29/12:00am 17.7 - 16.0 90 1.0 - - - - - - - 2.0
 
Date/Time
EST
Tmp

°C
App
Tmp
°C
Dew
Point
°C
Rel
Hum
%
Delta-T

°C
Wind Press
QNH
hPa
Press
MSL
hPa
Rain
since
9 am
mm
Dir
 
Spd
km/h
Gust
km/h
Spd
kts
Gust
kts
28/11:30pm 17.8 - 16.1 90 1.0 - - - - - - - 2.0
28/11:00pm 17.9 - 16.2 90 1.0 - - - - - - - 2.0
28/10:30pm 17.9 - 16.6 92 0.8 - - - - - - - 2.0
28/10:00pm 17.9 - 16.9 94 0.6 - - - - - - - 2.0
28/09:30pm 17.7 - 16.4 92 0.8 - - - - - - - 2.0
28/09:00pm 17.7 - 16.4 92 0.8 - - - - - - - 2.0
28/08:30pm 17.6 - 16.1 91 0.9 - - - - - - - 2.0
28/08:00pm 17.8 - 16.1 90 1.0 - - - - - - - 2.0
28/07:30pm 17.9 - 16.1 89 1.1 - - - - - - - 2.0
28/07:00pm 18.1 - 16.1 88 1.2 - - - - - - - 1.8
28/06:30pm 18.7 - 16.5 87 1.3 - - - - - - - 1.4
28/06:00pm 19.2 - 17.3 89 1.2 - - - - - - - 1.4
28/05:30pm 19.4 - 17.2 87 1.4 - - - - - - - 1.4
28/05:00pm 19.9 - 17.5 86 1.5 - - - - - - - 1.4
28/04:30pm 19.7 - 17.7 88 1.3 - - - - - - - 1.4
28/04:00pm 19.5 - 17.1 86 1.5 - - - - - - - 1.4
28/03:30pm 19.7 - 17.3 86 1.5 - - - - - - - 1.4
28/03:00pm 19.9 - 17.7 87 1.4 - - - - - - - 1.4
28/02:30pm 20.0 - 17.6 86 1.5 - - - - - - - 1.2
28/02:00pm 19.8 - 17.6 87 1.4 - - - - - - - 1.2
28/01:30pm 19.8 - 17.0 84 1.7 - - - - - - - 0.6
28/01:00pm 20.2 - 17.6 85 1.6 - - - - - - - 0.6
28/12:30pm 20.0 - 17.2 84 1.7 - - - - - - - 0.2
28/12:00pm 19.8 - 16.3 80 2.1 - - - - - - - 0.2
28/11:30am 20.9 - 17.1 79 2.4 - - - - - - - 0.2
28/11:00am 20.6 - 17.4 82 2.0 - - - - - - - 0.2
28/10:30am 19.9 - 17.1 84 1.7 - - - - - - - 0.2
28/10:00am 20.0 - 16.4 80 2.2 - - - - - - - 0.0
28/09:30am 20.6 - 16.6 78 2.5 - - - - - - - 0.0
28/09:00am 20.9 - 17.1 79 2.4 - - - - - - - 5.8
28/08:30am 19.6 - 16.8 84 1.7 - - - - - - - 5.8
28/08:00am 18.9 - 16.5 86 1.5 - - - - - - - 5.8
28/07:30am 18.5 - 16.3 87 1.3 - - - - - - - 5.8
28/07:00am 17.9 - 16.1 89 1.1 - - - - - - - 5.8
28/06:30am 17.6 - 15.9 90 1.0 - - - - - - - 5.8
28/06:00am 17.8 - 16.1 90 1.0 - - - - - - - 5.8
28/05:30am 18.0 - 16.5 91 0.9 - - - - - - - 5.8
28/05:00am 18.1 - 16.6 91 0.9 - - - - - - - 5.8
28/04:30am 18.1 - 16.8 92 0.8 - - - - - - - 5.8
28/04:00am 18.0 - 16.7 92 0.8 - - - - - - - 5.6
28/03:30am 18.0 - 16.3 90 1.0 - - - - - - - 5.2
28/03:00am 18.3 - 16.3 88 1.2 - - - - - - - 5.2
28/02:30am 18.8 - 16.8 88 1.2 - - - - - - - 5.2
28/02:00am 19.0 - 17.5 91 0.9 - - - - - - - 4.8
28/01:30am 19.2 - 17.3 89 1.2 - - - - - - - 4.2
28/01:00am 19.4 - 17.7 90 1.1 - - - - - - - 3.6
28/12:30am 19.6 - 18.1 91 0.9 - - - - - - - 3.0
28/12:00am 19.7 - 18.0 90 1.1 - - - - - - - 2.2
 
Date/Time
EST
Tmp

°C
App
Tmp
°C
Dew
Point
°C
Rel
Hum
%
Delta-T

°C
Wind Press
QNH
hPa
Press
MSL
hPa
Rain
since
9 am
mm
Dir
 
Spd
km/h
Gust
km/h
Spd
kts
Gust
kts
27/11:30pm 19.7 - 17.7 88 1.3 - - - - - - - 1.4
27/11:00pm 19.9 - 17.7 87 1.4 - - - - - - - 0.6
27/10:30pm 20.2 - 17.8 86 1.5 - - - - - - - 0.2
27/10:00pm 20.5 - 17.7 84 1.8 - - - - - - - 0.2
27/09:30pm 21.1 - 17.9 82 2.0 - - - - - - - 0.2
27/09:00pm 21.3 - 18.3 83 1.9 - - - - - - - 0.2
27/08:30pm 21.6 - 18.4 82 2.0 - - - - - - - 0.2
27/08:00pm 21.8 - 18.6 82 2.1 - - - - - - - 0.2
27/07:30pm 21.8 - 18.4 81 2.2 - - - - - - - 0.2
27/07:00pm 22.0 - 18.4 80 2.3 - - - - - - - 0.2
27/06:30pm 22.4 - 18.4 78 2.6 - - - - - - - 0.2
27/06:00pm 22.6 - 18.4 77 2.7 - - - - - - - 0.2
27/05:30pm 23.0 - 18.7 77 2.8 - - - - - - - 0.2
27/05:00pm 23.2 - 18.3 74 3.1 - - - - - - - 0.2
27/04:30pm 24.6 - 18.1 67 4.2 - - - - - - - 0.2
27/04:00pm 25.6 - 17.5 61 5.2 - - - - - - - 0.2
27/03:30pm 25.9 - 16.2 55 6.1 - - - - - - - 0.2
27/03:00pm 27.5 - 17.4 54 6.5 - - - - - - - 0.2
27/02:30pm 27.9 - 16.2 49 7.4 - - - - - - - 0.2
27/02:00pm 27.0 - 16.3 52 6.7 - - - - - - - 0.2
27/01:30pm 27.3 - 16.0 50 7.1 - - - - - - - 0.2
27/01:00pm 27.0 - 16.6 53 6.6 - - - - - - - 0.2
27/12:30pm 27.2 - 15.2 47 7.4 - - - - - - - 0.2
27/12:00pm 26.8 - 16.4 53 6.6 - - - - - - - 0.2
27/11:30am 26.7 - 16.9 55 6.2 - - - - - - - 0.2
27/11:00am 26.5 - 16.1 52 6.5 - - - - - - - 0.2
27/10:30am 26.1 - 17.7 60 5.4 - - - - - - - 0.2
27/10:00am 25.2 - 19.3 70 3.9 - - - - - - - 0.2
27/09:30am 24.4 - 17.6 66 4.3 - - - - - - - 0.2
27/09:00am 24.5 - 19.3 73 3.4 - - - - - - - 2.4
27/08:30am 23.0 - 18.5 76 2.9 - - - - - - - 2.4
27/08:00am 22.1 - 19.1 83 1.9 - - - - - - - 2.4
27/07:30am 21.9 - 18.9 83 1.9 - - - - - - - 2.4
27/07:00am 22.2 - 19.2 83 1.9 - - - - - - - 2.4
27/06:30am 21.4 - 18.8 85 1.7 - - - - - - - 2.4
27/06:00am 21.1 - 18.5 85 1.7 - - - - - - - 2.4
27/05:30am 21.0 - 18.4 85 1.7 - - - - - - - 2.4
27/05:00am 21.1 - 18.7 86 1.5 - - - - - - - 2.4
27/04:30am 20.8 - 18.4 86 1.5 - - - - - - - 2.4
27/04:00am 20.6 - 18.2 86 1.5 - - - - - - - 2.4
27/03:30am 20.7 - 18.3 86 1.5 - - - - - - - 2.4
27/03:00am 21.2 - 18.4 84 1.8 - - - - - - - 2.4
27/02:30am 21.2 - 18.4 84 1.8 - - - - - - - 2.4
27/02:00am 21.0 - 18.4 85 1.7 - - - - - - - 2.4
27/01:30am 21.1 - 18.5 85 1.7 - - - - - - - 2.4
27/01:00am 21.3 - 18.3 83 1.9 - - - - - - - 2.4
27/12:30am 21.6 - 18.6 83 1.9 - - - - - - - 2.4
27/12:00am 21.5 - 19.1 86 1.5 - - - - - - - 2.4
 
Date/Time
EST
Tmp

°C
App
Tmp
°C
Dew
Point
°C
Rel
Hum
%
Delta-T

°C
Wind Press
QNH
hPa
Press
MSL
hPa
Rain
since
9 am
mm
Dir
 
Spd
km/h
Gust
km/h
Spd
kts
Gust
kts
26/11:30pm 21.6 - 19.3 87 1.5 - - - - - - - 2.4
26/11:00pm 22.1 - 19.1 83 1.9 - - - - - - - 2.4
26/10:30pm 22.4 - 19.4 83 2.0 - - - - - - - 2.4
26/10:00pm 22.6 - 19.6 83 2.0 - - - - - - - 2.4
26/09:30pm 22.7 - 19.7 83 2.0 - - - - - - - 2.4
26/09:00pm 22.9 - 19.7 82 2.1 - - - - - - - 2.4
26/08:30pm 22.9 - 19.7 82 2.1 - - - - - - - 2.4
26/08:00pm 23.0 - 20.3 85 1.8 - - - - - - - 2.4
26/07:30pm 23.5 - 20.4 83 2.1 - - - - - - - 2.4
26/07:00pm 23.7 - 20.8 84 1.9 - - - - - - - 2.2
26/06:30pm 23.7 - 21.0 85 1.8 - - - - - - - 2.2

Latest Capital City Observations: Canberra | Sydney | Melbourne | Brisbane | Adelaide | Perth | Hobart | Darwin

Other Formats:

Comma delimited format used in spreadsheet applications
http://www.bom.gov.au/fwo/IDQ60901/IDQ60901.94557.axf

JavaScript Object Notation format (JSON) in row-major order
http://www.bom.gov.au/fwo/IDQ60901/IDQ60901.94557.json